Mogote, Colorado
Current Conditions -  °F | °C
As of 2:52 AM on Saturday 22 Nov 2014 (Local Time) from KALS Reporting Station
Clear Clear  
Wind Chill:   Ceiling: Unl
Heat Index:   Visibility: 10mi
Dew Point:   Wind: 5mph
Humidity: 88%   Direction: 250°WSW
Pressure: 30.12"   Gusts: NA
Location:  37.1816°N, 106.262°W
Report Text: KALS 220952Z AUTO 25004KT 10SM CLR M13/M14 A3012 RMK AO2 SLP217 T11281144
Loading
Personal Weather Stations






























Interactive Weather Map New forecast layout! Learn more

10-Day Weather Forecast

Advertisements
Track Severe Weather on mobile